sensor_id;sensor_type;location;lat;lon;timestamp;P1;durP1;ratioP1;P2;durP2;ratioP2
38238;SDS011;24035;48.900;9.188;2022-09-01T00:01:41;6.57;;;3.85;;
38238;SDS011;24035;48.900;9.188;2022-09-01T00:04:09;8.13;;;4.35;;
38238;SDS011;24035;48.900;9.188;2022-09-01T00:06:37;12.30;;;4.28;;
38238;SDS011;24035;48.900;9.188;2022-09-01T00:09:05;7.47;;;4.25;;
38238;SDS011;24035;48.900;9.188;2022-09-01T00:11:37;7.65;;;4.32;;
38238;SDS011;24035;48.900;9.188;2022-09-01T00:14:04;5.82;;;3.80;;
38238;SDS011;24035;48.900;9.188;2022-09-01T00:16:30;5.85;;;3.92;;
38238;SDS011;24035;48.900;9.188;2022-09-01T00:18:56;6.10;;;3.88;;
38238;SDS011;24035;48.900;9.188;2022-09-01T00:21:25;6.43;;;4.00;;
38238;SDS011;24035;48.900;9.188;2022-09-01T00:23:53;5.60;;;3.75;;
38238;SDS011;24035;48.900;9.188;2022-09-01T00:26:19;10.43;;;4.07;;
38238;SDS011;24035;48.900;9.188;2022-09-01T00:28:45;5.80;;;3.50;;
38238;SDS011;24035;48.900;9.188;2022-09-01T00:31:11;7.35;;;4.00;;
38238;SDS011;24035;48.900;9.188;2022-09-01T00:33:39;8.27;;;3.90;;
38238;SDS011;24035;48.900;9.188;2022-09-01T00:36:05;8.20;;;3.90;;
38238;SDS011;24035;48.900;9.188;2022-09-01T00:38:32;13.07;;;4.18;;
38238;SDS011;24035;48.900;9.188;2022-09-01T00:40:58;8.52;;;4.43;;
38238;SDS011;24035;48.900;9.188;2022-09-01T00:46:03;8.48;;;3.90;;
38238;SDS011;24035;48.900;9.188;2022-09-01T00:48:30;6.30;;;4.18;;
38238;SDS011;24035;48.900;9.188;2022-09-01T00:50:56;6.75;;;4.20;;
38238;SDS011;24035;48.900;9.188;2022-09-01T00:53:23;7.55;;;3.97;;
38238;SDS011;24035;48.900;9.188;2022-09-01T00:55:48;6.50;;;4.15;;
38238;SDS011;24035;48.900;9.188;2022-09-01T00:58:14;5.72;;;3.70;;
38238;SDS011;24035;48.900;9.188;2022-09-01T01:00:40;7.05;;;4.05;;
38238;SDS011;24035;48.900;9.188;2022-09-01T01:03:08;6.90;;;3.70;;
38238;SDS011;24035;48.900;9.188;2022-09-01T01:05:37;7.43;;;4.10;;
38238;SDS011;24035;48.900;9.188;2022-09-01T01:08:10;5.78;;;3.65;;
38238;SDS011;24035;48.900;9.188;2022-09-01T01:10:37;7.25;;;3.58;;
38238;SDS011;24035;48.900;9.188;2022-09-01T01:13:09;7.32;;;4.10;;
38238;SDS011;24035;48.900;9.188;2022-09-01T01:15:38;8.53;;;4.30;;
38238;SDS011;24035;48.900;9.188;2022-09-01T01:18:08;8.88;;;4.30;;
38238;SDS011;24035;48.900;9.188;2022-09-01T01:20:35;9.15;;;4.40;;
38238;SDS011;24035;48.900;9.188;2022-09-01T01:25:52;7.60;;;4.30;;
38238;SDS011;24035;48.900;9.188;2022-09-01T01:30:51;8.25;;;3.25;;
38238;SDS011;24035;48.900;9.188;2022-09-01T01:33:20;6.97;;;3.92;;
38238;SDS011;24035;48.900;9.188;2022-09-01T01:35:48;7.10;;;3.85;;
38238;SDS011;24035;48.900;9.188;2022-09-01T01:38:16;7.45;;;4.32;;
38238;SDS011;24035;48.900;9.188;2022-09-01T01:40:44;6.15;;;3.60;;
38238;SDS011;24035;48.900;9.188;2022-09-01T01:43:10;6.85;;;3.88;;
38238;SDS011;24035;48.900;9.188;2022-09-01T01:45:44;7.10;;;4.03;;
38238;SDS011;24035;48.900;9.188;2022-09-01T01:48:13;6.85;;;4.07;;
38238;SDS011;24035;48.900;9.188;2022-09-01T01:50:39;7.25;;;4.07;;
38238;SDS011;24035;48.900;9.188;2022-09-01T01:53:07;7.57;;;3.40;;
38238;SDS011;24035;48.900;9.188;2022-09-01T01:55:33;6.70;;;4.22;;
38238;SDS011;24035;48.900;9.188;2022-09-01T01:57:59;8.68;;;4.10;;
38238;SDS011;24035;48.900;9.188;2022-09-01T02:00:26;6.63;;;4.13;;
38238;SDS011;24035;48.900;9.188;2022-09-01T02:02:55;7.88;;;4.72;;
38238;SDS011;24035;48.900;9.188;2022-09-01T02:05:23;8.48;;;4.10;;
38238;SDS011;24035;48.900;9.188;2022-09-01T02:07:55;7.50;;;4.03;;
38238;SDS011;24035;48.900;9.188;2022-09-01T02:10:27;7.13;;;4.17;;
38238;SDS011;24035;48.900;9.188;2022-09-01T02:15:30;7.13;;;4.18;;
38238;SDS011;24035;48.900;9.188;2022-09-01T02:18:05;6.55;;;3.75;;
38238;SDS011;24035;48.900;9.188;2022-09-01T02:20:30;7.30;;;4.25;;
38238;SDS011;24035;48.900;9.188;2022-09-01T02:23:01;6.75;;;3.75;;
38238;SDS011;24035;48.900;9.188;2022-09-01T02:25:33;9.90;;;4.63;;
38238;SDS011;24035;48.900;9.188;2022-09-01T02:27:59;8.90;;;4.60;;
38238;SDS011;24035;48.900;9.188;2022-09-01T02:30:28;8.15;;;4.53;;
38238;SDS011;24035;48.900;9.188;2022-09-01T02:32:57;9.25;;;4.10;;
38238;SDS011;24035;48.900;9.188;2022-09-01T02:35:24;6.88;;;4.45;;
38238;SDS011;24035;48.900;9.188;2022-09-01T02:37:58;8.00;;;3.92;;
38238;SDS011;24035;48.900;9.188;2022-09-01T02:40:25;8.10;;;3.90;;
38238;SDS011;24035;48.900;9.188;2022-09-01T02:42:56;6.53;;;4.03;;
38238;SDS011;24035;48.900;9.188;2022-09-01T02:45:24;7.38;;;4.30;;
38238;SDS011;24035;48.900;9.188;2022-09-01T02:47:51;11.95;;;4.55;;
38238;SDS011;24035;48.900;9.188;2022-09-01T02:50:18;9.00;;;4.88;;
38238;SDS011;24035;48.900;9.188;2022-09-01T02:52:46;7.63;;;4.38;;
38238;SDS011;24035;48.900;9.188;2022-09-01T02:55:14;8.65;;;4.82;;
38238;SDS011;24035;48.900;9.188;2022-09-01T02:57:45;8.68;;;4.82;;
38238;SDS011;24035;48.900;9.188;2022-09-01T03:00:12;8.20;;;4.07;;
38238;SDS011;24035;48.900;9.188;2022-09-01T03:02:50;7.20;;;4.18;;
38238;SDS011;24035;48.900;9.188;2022-09-01T03:05:20;8.32;;;4.75;;
38238;SDS011;24035;48.900;9.188;2022-09-01T03:08:05;7.40;;;4.72;;
38238;SDS011;24035;48.900;9.188;2022-09-01T03:13:12;6.93;;;4.03;;
38238;SDS011;24035;48.900;9.188;2022-09-01T03:15:40;9.15;;;4.65;;
38238;SDS011;24035;48.900;9.188;2022-09-01T03:18:07;7.57;;;4.70;;
38238;SDS011;24035;48.900;9.188;2022-09-01T03:20:36;7.90;;;4.45;;
38238;SDS011;24035;48.900;9.188;2022-09-01T03:23:04;8.35;;;5.15;;
38238;SDS011;24035;48.900;9.188;2022-09-01T03:25:33;6.90;;;4.28;;
38238;SDS011;24035;48.900;9.188;2022-09-01T03:27:59;8.25;;;4.70;;
38238;SDS011;24035;48.900;9.188;2022-09-01T03:30:32;9.10;;;5.25;;
38238;SDS011;24035;48.900;9.188;2022-09-01T03:33:00;8.07;;;4.75;;
38238;SDS011;24035;48.900;9.188;2022-09-01T03:35:27;9.48;;;4.95;;
38238;SDS011;24035;48.900;9.188;2022-09-01T03:37:56;8.00;;;4.90;;
38238;SDS011;24035;48.900;9.188;2022-09-01T03:40:28;7.28;;;4.65;;
38238;SDS011;24035;48.900;9.188;2022-09-01T03:43:00;9.32;;;4.93;;
38238;SDS011;24035;48.900;9.188;2022-09-01T03:45:31;8.13;;;4.38;;
38238;SDS011;24035;48.900;9.188;2022-09-01T03:48:03;12.18;;;6.35;;
38238;SDS011;24035;48.900;9.188;2022-09-01T03:50:37;7.45;;;4.50;;
38238;SDS011;24035;48.900;9.188;2022-09-01T03:53:05;8.10;;;5.20;;
38238;SDS011;24035;48.900;9.188;2022-09-01T03:55:32;8.40;;;4.97;;
38238;SDS011;24035;48.900;9.188;2022-09-01T03:58:03;10.48;;;5.70;;
38238;SDS011;24035;48.900;9.188;2022-09-01T04:00:32;10.20;;;5.80;;
38238;SDS011;24035;48.900;9.188;2022-09-01T04:03:00;11.10;;;4.95;;
38238;SDS011;24035;48.900;9.188;2022-09-01T04:05:27;8.30;;;4.82;;
38238;SDS011;24035;48.900;9.188;2022-09-01T04:07:55;8.77;;;5.18;;
38238;SDS011;24035;48.900;9.188;2022-09-01T04:10:23;8.85;;;4.90;;
38238;SDS011;24035;48.900;9.188;2022-09-01T04:12:49;7.65;;;4.88;;
38238;SDS011;24035;48.900;9.188;2022-09-01T04:15:16;9.40;;;5.07;;
38238;SDS011;24035;48.900;9.188;2022-09-01T04:17:45;9.70;;;6.28;;
38238;SDS011;24035;48.900;9.188;2022-09-01T04:20:34;8.40;;;5.07;;
38238;SDS011;24035;48.900;9.188;2022-09-01T04:23:19;10.05;;;5.72;;
38238;SDS011;24035;48.900;9.188;2022-09-01T04:26:06;8.75;;;4.95;;
38238;SDS011;24035;48.900;9.188;2022-09-01T04:28:39;10.05;;;6.07;;
38238;SDS011;24035;48.900;9.188;2022-09-01T04:31:11;10.30;;;6.05;;
38238;SDS011;24035;48.900;9.188;2022-09-01T04:36:21;10.05;;;5.68;;
38238;SDS011;24035;48.900;9.188;2022-09-01T04:38:50;9.82;;;5.85;;
38238;SDS011;24035;48.900;9.188;2022-09-01T04:41:19;11.10;;;5.78;;
38238;SDS011;24035;48.900;9.188;2022-09-01T04:43:47;9.95;;;6.25;;
38238;SDS011;24035;48.900;9.188;2022-09-01T04:46:16;11.70;;;6.38;;
38238;SDS011;24035;48.900;9.188;2022-09-01T04:48:42;12.23;;;6.45;;
38238;SDS011;24035;48.900;9.188;2022-09-01T04:51:09;11.45;;;6.63;;
38238;SDS011;24035;48.900;9.188;2022-09-01T04:53:37;13.73;;;6.57;;
38238;SDS011;24035;48.900;9.188;2022-09-01T04:56:07;11.18;;;6.68;;
38238;SDS011;24035;48.900;9.188;2022-09-01T04:58:34;11.23;;;6.57;;
38238;SDS011;24035;48.900;9.188;2022-09-01T05:01:01;14.40;;;7.55;;
38238;SDS011;24035;48.900;9.188;2022-09-01T05:03:37;12.13;;;6.65;;
38238;SDS011;24035;48.900;9.188;2022-09-01T05:06:03;12.43;;;7.20;;
38238;SDS011;24035;48.900;9.188;2022-09-01T05:08:29;10.73;;;5.75;;
38238;SDS011;24035;48.900;9.188;2022-09-01T05:10:58;12.68;;;7.40;;
38238;SDS011;24035;48.900;9.188;2022-09-01T05:16:01;12.38;;;6.95;;
38238;SDS011;24035;48.900;9.188;2022-09-01T05:18:30;11.88;;;6.95;;
38238;SDS011;24035;48.900;9.188;2022-09-01T05:20:56;11.00;;;6.93;;
38238;SDS011;24035;48.900;9.188;2022-09-01T05:23:22;13.68;;;7.22;;
38238;SDS011;24035;48.900;9.188;2022-09-01T05:25:51;17.25;;;7.95;;
38238;SDS011;24035;48.900;9.188;2022-09-01T05:28:18;13.00;;;7.68;;
38238;SDS011;24035;48.900;9.188;2022-09-01T05:30:48;14.45;;;8.43;;
38238;SDS011;24035;48.900;9.188;2022-09-01T05:33:15;12.77;;;7.68;;
38238;SDS011;24035;48.900;9.188;2022-09-01T05:35:41;12.68;;;8.00;;
38238;SDS011;24035;48.900;9.188;2022-09-01T05:38:16;11.35;;;7.70;;
38238;SDS011;24035;48.900;9.188;2022-09-01T05:40:43;13.32;;;7.68;;
38238;SDS011;24035;48.900;9.188;2022-09-01T05:43:18;12.95;;;7.32;;
38238;SDS011;24035;48.900;9.188;2022-09-01T05:45:45;14.70;;;8.07;;
38238;SDS011;24035;48.900;9.188;2022-09-01T05:48:11;10.13;;;7.10;;
38238;SDS011;24035;48.900;9.188;2022-09-01T05:50:46;14.45;;;8.13;;
38238;SDS011;24035;48.900;9.188;2022-09-01T05:53:14;12.50;;;7.55;;
38238;SDS011;24035;48.900;9.188;2022-09-01T05:55:44;15.15;;;7.70;;
38238;SDS011;24035;48.900;9.188;2022-09-01T05:58:11;10.27;;;7.22;;
38238;SDS011;24035;48.900;9.188;2022-09-01T06:00:42;13.70;;;8.20;;
38238;SDS011;24035;48.900;9.188;2022-09-01T06:03:12;14.20;;;7.78;;
38238;SDS011;24035;48.900;9.188;2022-09-01T06:05:38;12.07;;;7.53;;
38238;SDS011;24035;48.900;9.188;2022-09-01T06:08:05;15.15;;;8.02;;
38238;SDS011;24035;48.900;9.188;2022-09-01T06:10:37;12.63;;;7.45;;
38238;SDS011;24035;48.900;9.188;2022-09-01T06:13:05;16.08;;;8.57;;
38238;SDS011;24035;48.900;9.188;2022-09-01T06:15:31;13.80;;;7.85;;
38238;SDS011;24035;48.900;9.188;2022-09-01T06:17:57;13.77;;;8.13;;
38238;SDS011;24035;48.900;9.188;2022-09-01T06:20:24;14.90;;;7.70;;
38238;SDS011;24035;48.900;9.188;2022-09-01T06:22:50;15.75;;;8.68;;
38238;SDS011;24035;48.900;9.188;2022-09-01T06:25:17;18.80;;;8.65;;
38238;SDS011;24035;48.900;9.188;2022-09-01T06:27:44;12.50;;;8.15;;
38238;SDS011;24035;48.900;9.188;2022-09-01T06:30:12;11.07;;;6.55;;
38238;SDS011;24035;48.900;9.188;2022-09-01T06:32:43;13.82;;;7.13;;
38238;SDS011;24035;48.900;9.188;2022-09-01T06:35:12;12.98;;;7.35;;
38238;SDS011;24035;48.900;9.188;2022-09-01T06:37:40;13.68;;;7.68;;
38238;SDS011;24035;48.900;9.188;2022-09-01T06:40:10;11.43;;;7.07;;
38238;SDS011;24035;48.900;9.188;2022-09-01T06:42:44;15.40;;;7.47;;
38238;SDS011;24035;48.900;9.188;2022-09-01T06:45:15;10.63;;;6.85;;
38238;SDS011;24035;48.900;9.188;2022-09-01T06:47:43;11.93;;;7.53;;
38238;SDS011;24035;48.900;9.188;2022-09-01T06:50:10;12.05;;;6.88;;
38238;SDS011;24035;48.900;9.188;2022-09-01T06:52:41;10.80;;;6.70;;
38238;SDS011;24035;48.900;9.188;2022-09-01T06:55:10;9.95;;;6.55;;
38238;SDS011;24035;48.900;9.188;2022-09-01T06:57:39;7.93;;;5.90;;
38238;SDS011;24035;48.900;9.188;2022-09-01T07:00:13;8.32;;;5.60;;
38238;SDS011;24035;48.900;9.188;2022-09-01T07:02:44;12.57;;;5.72;;
38238;SDS011;24035;48.900;9.188;2022-09-01T07:05:10;9.43;;;5.45;;
38238;SDS011;24035;48.900;9.188;2022-09-01T07:07:38;8.07;;;5.20;;
38238;SDS011;24035;48.900;9.188;2022-09-01T07:10:05;7.32;;;4.53;;
38238;SDS011;24035;48.900;9.188;2022-09-01T07:12:31;6.78;;;4.22;;
38238;SDS011;24035;48.900;9.188;2022-09-01T07:14:56;7.97;;;4.25;;
38238;SDS011;24035;48.900;9.188;2022-09-01T07:17:24;5.88;;;3.70;;
38238;SDS011;24035;48.900;9.188;2022-09-01T07:19:50;6.55;;;3.65;;
38238;SDS011;24035;48.900;9.188;2022-09-01T07:22:17;7.93;;;4.20;;
38238;SDS011;24035;48.900;9.188;2022-09-01T07:24:43;7.47;;;4.40;;
38238;SDS011;24035;48.900;9.188;2022-09-01T07:27:10;7.07;;;3.88;;
38238;SDS011;24035;48.900;9.188;2022-09-01T07:29:36;7.00;;;3.67;;
38238;SDS011;24035;48.900;9.188;2022-09-01T07:32:03;6.40;;;3.28;;
38238;SDS011;24035;48.900;9.188;2022-09-01T07:34:29;6.30;;;3.65;;
38238;SDS011;24035;48.900;9.188;2022-09-01T07:36:57;6.28;;;3.80;;
38238;SDS011;24035;48.900;9.188;2022-09-01T07:39:24;6.95;;;4.00;;
38238;SDS011;24035;48.900;9.188;2022-09-01T07:41:49;5.20;;;3.47;;
38238;SDS011;24035;48.900;9.188;2022-09-01T07:44:15;7.53;;;3.25;;
38238;SDS011;24035;48.900;9.188;2022-09-01T07:46:41;5.30;;;3.03;;
38238;SDS011;24035;48.900;9.188;2022-09-01T07:49:07;5.30;;;3.05;;
38238;SDS011;24035;48.900;9.188;2022-09-01T07:51:33;5.65;;;3.03;;
38238;SDS011;24035;48.900;9.188;2022-09-01T07:54:00;6.22;;;3.08;;
38238;SDS011;24035;48.900;9.188;2022-09-01T07:56:26;5.47;;;2.97;;
38238;SDS011;24035;48.900;9.188;2022-09-01T07:58:54;5.30;;;3.03;;
38238;SDS011;24035;48.900;9.188;2022-09-01T08:01:22;5.20;;;3.42;;
38238;SDS011;24035;48.900;9.188;2022-09-01T08:03:51;6.07;;;3.38;;
38238;SDS011;24035;48.900;9.188;2022-09-01T08:06:20;4.97;;;2.67;;
38238;SDS011;24035;48.900;9.188;2022-09-01T08:08:49;3.95;;;2.10;;
38238;SDS011;24035;48.900;9.188;2022-09-01T08:11:16;5.40;;;2.90;;
38238;SDS011;24035;48.900;9.188;2022-09-01T08:13:44;5.47;;;2.88;;
38238;SDS011;24035;48.900;9.188;2022-09-01T08:16:11;5.35;;;3.05;;
38238;SDS011;24035;48.900;9.188;2022-09-01T08:18:37;6.25;;;3.20;;
38238;SDS011;24035;48.900;9.188;2022-09-01T08:21:07;5.80;;;3.00;;
38238;SDS011;24035;48.900;9.188;2022-09-01T08:23:34;5.55;;;3.03;;
38238;SDS011;24035;48.900;9.188;2022-09-01T08:26:21;5.05;;;3.10;;
38238;SDS011;24035;48.900;9.188;2022-09-01T08:28:48;6.40;;;3.10;;
38238;SDS011;24035;48.900;9.188;2022-09-01T08:31:16;6.50;;;3.60;;
38238;SDS011;24035;48.900;9.188;2022-09-01T08:33:43;5.53;;;2.97;;
38238;SDS011;24035;48.900;9.188;2022-09-01T08:36:12;5.80;;;2.95;;
38238;SDS011;24035;48.900;9.188;2022-09-01T08:38:39;5.55;;;3.00;;
38238;SDS011;24035;48.900;9.188;2022-09-01T08:41:16;5.53;;;3.38;;
38238;SDS011;24035;48.900;9.188;2022-09-01T08:43:49;5.68;;;2.90;;
38238;SDS011;24035;48.900;9.188;2022-09-01T08:46:37;5.63;;;3.00;;
38238;SDS011;24035;48.900;9.188;2022-09-01T08:49:12;5.07;;;3.30;;
38238;SDS011;24035;48.900;9.188;2022-09-01T08:51:56;5.18;;;2.70;;
38238;SDS011;24035;48.900;9.188;2022-09-01T08:57:34;6.35;;;2.35;;
38238;SDS011;24035;48.900;9.188;2022-09-01T09:00:03;4.72;;;2.50;;
38238;SDS011;24035;48.900;9.188;2022-09-01T09:05:32;4.30;;;2.33;;
38238;SDS011;24035;48.900;9.188;2022-09-01T09:11:03;7.78;;;2.38;;
38238;SDS011;24035;48.900;9.188;2022-09-01T09:16:43;6.80;;;2.50;;
38238;SDS011;24035;48.900;9.188;2022-09-01T09:19:27;5.38;;;3.00;;
38238;SDS011;24035;48.900;9.188;2022-09-01T09:22:04;5.32;;;2.15;;
38238;SDS011;24035;48.900;9.188;2022-09-01T09:27:18;4.40;;;1.95;;
38238;SDS011;24035;48.900;9.188;2022-09-01T09:29:53;4.28;;;2.30;;
38238;SDS011;24035;48.900;9.188;2022-09-01T09:32:25;3.95;;;2.20;;
38238;SDS011;24035;48.900;9.188;2022-09-01T09:35:24;5.30;;;2.47;;
38238;SDS011;24035;48.900;9.188;2022-09-01T09:37:54;3.80;;;2.10;;
38238;SDS011;24035;48.900;9.188;2022-09-01T09:40:21;5.30;;;2.45;;
38238;SDS011;24035;48.900;9.188;2022-09-01T09:45:27;3.85;;;2.00;;
38238;SDS011;24035;48.900;9.188;2022-09-01T09:48:25;4.25;;;2.33;;
38238;SDS011;24035;48.900;9.188;2022-09-01T09:50:52;4.65;;;1.85;;
38238;SDS011;24035;48.900;9.188;2022-09-01T09:53:25;4.60;;;2.30;;
38238;SDS011;24035;48.900;9.188;2022-09-01T09:55:55;5.10;;;1.92;;
38238;SDS011;24035;48.900;9.188;2022-09-01T09:58:28;4.20;;;1.75;;
38238;SDS011;24035;48.900;9.188;2022-09-01T10:03:47;4.80;;;1.98;;
38238;SDS011;24035;48.900;9.188;2022-09-01T10:06:28;4.07;;;1.92;;
38238;SDS011;24035;48.900;9.188;2022-09-01T10:09:15;4.03;;;1.90;;
38238;SDS011;24035;48.900;9.188;2022-09-01T10:11:50;3.30;;;1.58;;
38238;SDS011;24035;48.900;9.188;2022-09-01T10:14:21;4.45;;;2.03;;
38238;SDS011;24035;48.900;9.188;2022-09-01T10:17:00;3.47;;;1.50;;
38238;SDS011;24035;48.900;9.188;2022-09-01T10:19:28;3.40;;;1.48;;
38238;SDS011;24035;48.900;9.188;2022-09-01T10:21:59;3.13;;;1.55;;
38238;SDS011;24035;48.900;9.188;2022-09-01T10:27:11;4.18;;;1.70;;
38238;SDS011;24035;48.900;9.188;2022-09-01T10:32:18;3.10;;;1.60;;
38238;SDS011;24035;48.900;9.188;2022-09-01T10:34:54;3.45;;;1.30;;
38238;SDS011;24035;48.900;9.188;2022-09-01T10:37:21;2.30;;;1.10;;
38238;SDS011;24035;48.900;9.188;2022-09-01T10:42:47;3.03;;;1.38;;
38238;SDS011;24035;48.900;9.188;2022-09-01T10:45:29;2.60;;;1.35;;
38238;SDS011;24035;48.900;9.188;2022-09-01T10:48:20;3.38;;;1.50;;
38238;SDS011;24035;48.900;9.188;2022-09-01T10:50:45;3.30;;;1.52;;
38238;SDS011;24035;48.900;9.188;2022-09-01T10:56:02;3.35;;;1.58;;
38238;SDS011;24035;48.900;9.188;2022-09-01T10:58:34;3.10;;;1.15;;
38238;SDS011;24035;48.900;9.188;2022-09-01T11:01:10;6.10;;;1.90;;
38238;SDS011;24035;48.900;9.188;2022-09-01T11:03:37;3.60;;;1.70;;
38238;SDS011;24035;48.900;9.188;2022-09-01T11:06:30;3.47;;;1.48;;
38238;SDS011;24035;48.900;9.188;2022-09-01T11:08:57;3.00;;;1.50;;
38238;SDS011;24035;48.900;9.188;2022-09-01T11:11:42;3.15;;;1.50;;
38238;SDS011;24035;48.900;9.188;2022-09-01T11:14:24;4.30;;;1.77;;
38238;SDS011;24035;48.900;9.188;2022-09-01T11:17:10;3.55;;;1.70;;
38238;SDS011;24035;48.900;9.188;2022-09-01T11:19:43;3.17;;;1.33;;
38238;SDS011;24035;48.900;9.188;2022-09-01T11:22:26;2.70;;;1.30;;
38238;SDS011;24035;48.900;9.188;2022-09-01T11:33:01;3.85;;;1.60;;
38238;SDS011;24035;48.900;9.188;2022-09-01T11:35:32;2.63;;;1.30;;
38238;SDS011;24035;48.900;9.188;2022-09-01T11:38:01;3.58;;;1.52;;
38238;SDS011;24035;48.900;9.188;2022-09-01T11:40:29;3.47;;;1.60;;
38238;SDS011;24035;48.900;9.188;2022-09-01T11:42:57;4.13;;;1.65;;
38238;SDS011;24035;48.900;9.188;2022-09-01T11:45:31;2.42;;;1.17;;
38238;SDS011;24035;48.900;9.188;2022-09-01T11:48:07;3.45;;;1.60;;
38238;SDS011;24035;48.900;9.188;2022-09-01T11:50:36;3.40;;;1.23;;
38238;SDS011;24035;48.900;9.188;2022-09-01T11:55:35;2.97;;;1.30;;
38238;SDS011;24035;48.900;9.188;2022-09-01T11:58:04;2.60;;;1.38;;
38238;SDS011;24035;48.900;9.188;2022-09-01T12:00:34;2.75;;;1.35;;
38238;SDS011;24035;48.900;9.188;2022-09-01T12:03:05;3.30;;;1.38;;
38238;SDS011;24035;48.900;9.188;2022-09-01T12:05:49;3.05;;;1.63;;
38238;SDS011;24035;48.900;9.188;2022-09-01T12:08:23;3.25;;;1.55;;
38238;SDS011;24035;48.900;9.188;2022-09-01T12:11:01;3.28;;;1.40;;
38238;SDS011;24035;48.900;9.188;2022-09-01T12:13:35;2.92;;;1.30;;
38238;SDS011;24035;48.900;9.188;2022-09-01T12:16:03;3.15;;;1.50;;
38238;SDS011;24035;48.900;9.188;2022-09-01T12:18:35;3.25;;;1.50;;
38238;SDS011;24035;48.900;9.188;2022-09-01T12:21:15;2.45;;;1.23;;
38238;SDS011;24035;48.900;9.188;2022-09-01T12:23:46;2.83;;;1.20;;
38238;SDS011;24035;48.900;9.188;2022-09-01T12:26:13;2.80;;;1.33;;
38238;SDS011;24035;48.900;9.188;2022-09-01T12:28:40;2.90;;;1.42;;
38238;SDS011;24035;48.900;9.188;2022-09-01T12:31:17;3.80;;;1.33;;
38238;SDS011;24035;48.900;9.188;2022-09-01T12:33:46;3.97;;;1.48;;
38238;SDS011;24035;48.900;9.188;2022-09-01T12:36:13;3.47;;;1.40;;
38238;SDS011;24035;48.900;9.188;2022-09-01T12:41:47;2.47;;;1.15;;
38238;SDS011;24035;48.900;9.188;2022-09-01T12:44:31;2.33;;;1.10;;
38238;SDS011;24035;48.900;9.188;2022-09-01T12:47:08;3.70;;;1.10;;
38238;SDS011;24035;48.900;9.188;2022-09-01T12:49:55;3.17;;;1.48;;
38238;SDS011;24035;48.900;9.188;2022-09-01T12:52:22;2.17;;;1.08;;
38238;SDS011;24035;48.900;9.188;2022-09-01T12:54:51;3.47;;;1.13;;
38238;SDS011;24035;48.900;9.188;2022-09-01T12:57:31;3.05;;;1.30;;
38238;SDS011;24035;48.900;9.188;2022-09-01T13:02:34;3.22;;;1.63;;
38238;SDS011;24035;48.900;9.188;2022-09-01T13:05:18;4.00;;;1.58;;
38238;SDS011;24035;48.900;9.188;2022-09-01T13:07:56;3.42;;;1.88;;
38238;SDS011;24035;48.900;9.188;2022-09-01T13:10:24;3.03;;;1.50;;
38238;SDS011;24035;48.900;9.188;2022-09-01T13:12:52;2.95;;;1.40;;
38238;SDS011;24035;48.900;9.188;2022-09-01T13:15:19;3.55;;;1.60;;
38238;SDS011;24035;48.900;9.188;2022-09-01T13:17:45;4.10;;;1.52;;
38238;SDS011;24035;48.900;9.188;2022-09-01T13:20:12;4.45;;;1.50;;
38238;SDS011;24035;48.900;9.188;2022-09-01T13:22:38;2.58;;;1.20;;
38238;SDS011;24035;48.900;9.188;2022-09-01T13:25:09;2.85;;;1.50;;
38238;SDS011;24035;48.900;9.188;2022-09-01T13:27:37;3.33;;;1.40;;
38238;SDS011;24035;48.900;9.188;2022-09-01T13:30:08;2.72;;;1.38;;
38238;SDS011;24035;48.900;9.188;2022-09-01T13:32:35;2.95;;;1.40;;
38238;SDS011;24035;48.900;9.188;2022-09-01T13:35:01;3.13;;;1.45;;
38238;SDS011;24035;48.900;9.188;2022-09-01T13:37:27;3.95;;;1.40;;
38238;SDS011;24035;48.900;9.188;2022-09-01T13:39:52;2.97;;;1.33;;
38238;SDS011;24035;48.900;9.188;2022-09-01T13:42:18;2.35;;;1.25;;
38238;SDS011;24035;48.900;9.188;2022-09-01T13:44:44;2.70;;;1.15;;
38238;SDS011;24035;48.900;9.188;2022-09-01T13:47:11;2.72;;;1.30;;
38238;SDS011;24035;48.900;9.188;2022-09-01T13:49:37;2.75;;;1.17;;
38238;SDS011;24035;48.900;9.188;2022-09-01T13:52:03;5.07;;;1.42;;
38238;SDS011;24035;48.900;9.188;2022-09-01T13:54:28;2.63;;;1.35;;
38238;SDS011;24035;48.900;9.188;2022-09-01T13:56:54;2.78;;;1.40;;
38238;SDS011;24035;48.900;9.188;2022-09-01T13:59:20;2.42;;;1.20;;
38238;SDS011;24035;48.900;9.188;2022-09-01T14:01:45;3.30;;;1.60;;
38238;SDS011;24035;48.900;9.188;2022-09-01T14:04:11;2.45;;;1.15;;
38238;SDS011;24035;48.900;9.188;2022-09-01T14:06:40;3.17;;;1.42;;
38238;SDS011;24035;48.900;9.188;2022-09-01T14:09:11;2.50;;;1.20;;
38238;SDS011;24035;48.900;9.188;2022-09-01T14:11:38;2.92;;;1.50;;
38238;SDS011;24035;48.900;9.188;2022-09-01T14:14:05;2.38;;;1.08;;
38238;SDS011;24035;48.900;9.188;2022-09-01T14:16:31;2.20;;;1.00;;
38238;SDS011;24035;48.900;9.188;2022-09-01T14:18:57;4.28;;;1.17;;
38238;SDS011;24035;48.900;9.188;2022-09-01T14:21:24;3.00;;;1.23;;
38238;SDS011;24035;48.900;9.188;2022-09-01T14:23:50;2.42;;;1.17;;
38238;SDS011;24035;48.900;9.188;2022-09-01T14:26:17;3.47;;;1.38;;
38238;SDS011;24035;48.900;9.188;2022-09-01T14:28:43;2.42;;;1.10;;
38238;SDS011;24035;48.900;9.188;2022-09-01T14:31:12;3.05;;;1.50;;
38238;SDS011;24035;48.900;9.188;2022-09-01T14:33:40;2.25;;;1.05;;
38238;SDS011;24035;48.900;9.188;2022-09-01T14:36:06;2.13;;;1.10;;
38238;SDS011;24035;48.900;9.188;2022-09-01T14:38:33;7.20;;;1.42;;
38238;SDS011;24035;48.900;9.188;2022-09-01T14:41:00;3.33;;;1.13;;
38238;SDS011;24035;48.900;9.188;2022-09-01T14:43:26;3.05;;;1.30;;
38238;SDS011;24035;48.900;9.188;2022-09-01T14:46:04;2.70;;;1.27;;
38238;SDS011;24035;48.900;9.188;2022-09-01T14:48:32;2.30;;;1.20;;
38238;SDS011;24035;48.900;9.188;2022-09-01T14:50:59;3.05;;;1.40;;
38238;SDS011;24035;48.900;9.188;2022-09-01T14:53:25;3.05;;;1.50;;
38238;SDS011;24035;48.900;9.188;2022-09-01T14:55:53;3.30;;;1.17;;
38238;SDS011;24035;48.900;9.188;2022-09-01T14:58:20;3.35;;;1.00;;
38238;SDS011;24035;48.900;9.188;2022-09-01T15:00:45;3.67;;;1.70;;
38238;SDS011;24035;48.900;9.188;2022-09-01T15:03:12;2.00;;;0.93;;
38238;SDS011;24035;48.900;9.188;2022-09-01T15:05:38;2.45;;;1.05;;
38238;SDS011;24035;48.900;9.188;2022-09-01T15:08:04;2.42;;;1.10;;
38238;SDS011;24035;48.900;9.188;2022-09-01T15:10:31;2.05;;;0.93;;
38238;SDS011;24035;48.900;9.188;2022-09-01T15:12:59;2.67;;;1.27;;
38238;SDS011;24035;48.900;9.188;2022-09-01T15:15:26;2.70;;;1.20;;
38238;SDS011;24035;48.900;9.188;2022-09-01T15:17:53;2.25;;;1.00;;
38238;SDS011;24035;48.900;9.188;2022-09-01T15:20:19;1.90;;;0.90;;
38238;SDS011;24035;48.900;9.188;2022-09-01T15:23:04;3.20;;;1.30;;
38238;SDS011;24035;48.900;9.188;2022-09-01T15:25:31;1.95;;;1.00;;
38238;SDS011;24035;48.900;9.188;2022-09-01T15:27:57;4.05;;;1.45;;
38238;SDS011;24035;48.900;9.188;2022-09-01T15:30:22;2.90;;;1.23;;
38238;SDS011;24035;48.900;9.188;2022-09-01T15:32:49;2.50;;;1.05;;
38238;SDS011;24035;48.900;9.188;2022-09-01T15:35:16;2.35;;;1.00;;
38238;SDS011;24035;48.900;9.188;2022-09-01T15:37:47;2.60;;;1.05;;
38238;SDS011;24035;48.900;9.188;2022-09-01T15:40:14;3.80;;;1.20;;
38238;SDS011;24035;48.900;9.188;2022-09-01T15:42:41;2.97;;;1.05;;
38238;SDS011;24035;48.900;9.188;2022-09-01T15:45:08;1.90;;;0.95;;
38238;SDS011;24035;48.900;9.188;2022-09-01T15:47:43;3.00;;;1.10;;
38238;SDS011;24035;48.900;9.188;2022-09-01T15:50:10;2.50;;;1.15;;
38238;SDS011;24035;48.900;9.188;2022-09-01T15:55:19;2.17;;;1.00;;
38238;SDS011;24035;48.900;9.188;2022-09-01T15:57:46;3.70;;;1.00;;
38238;SDS011;24035;48.900;9.188;2022-09-01T16:00:13;3.58;;;1.40;;
38238;SDS011;24035;48.900;9.188;2022-09-01T16:02:39;3.45;;;1.60;;
38238;SDS011;24035;48.900;9.188;2022-09-01T16:05:05;2.58;;;1.02;;
38238;SDS011;24035;48.900;9.188;2022-09-01T16:07:31;2.70;;;1.00;;
38238;SDS011;24035;48.900;9.188;2022-09-01T16:09:56;2.15;;;0.90;;